sensor_id;sensor_type;location;lat;lon;timestamp;P1;durP1;ratioP1;P2;durP2;ratioP2
44606;SDS011;30315;46.072;14.474;2023-01-30T00:01:38;19.98;;;15.48;;
44606;SDS011;30315;46.072;14.474;2023-01-30T00:04:05;19.90;;;15.43;;
44606;SDS011;30315;46.072;14.474;2023-01-30T00:06:32;20.00;;;14.80;;
44606;SDS011;30315;46.072;14.474;2023-01-30T00:08:59;20.17;;;15.07;;
44606;SDS011;30315;46.072;14.474;2023-01-30T00:11:26;17.58;;;14.93;;
44606;SDS011;30315;46.072;14.474;2023-01-30T00:13:55;18.30;;;14.90;;
44606;SDS011;30315;46.072;14.474;2023-01-30T00:16:22;19.65;;;14.85;;
44606;SDS011;30315;46.072;14.474;2023-01-30T00:18:49;19.77;;;14.80;;
44606;SDS011;30315;46.072;14.474;2023-01-30T00:21:16;18.52;;;14.50;;
44606;SDS011;30315;46.072;14.474;2023-01-30T00:23:43;22.52;;;15.40;;
44606;SDS011;30315;46.072;14.474;2023-01-30T00:26:11;19.05;;;14.50;;
44606;SDS011;30315;46.072;14.474;2023-01-30T00:28:38;19.27;;;14.55;;
44606;SDS011;30315;46.072;14.474;2023-01-30T00:31:06;20.55;;;16.15;;
44606;SDS011;30315;46.072;14.474;2023-01-30T00:33:34;22.60;;;16.15;;
44606;SDS011;30315;46.072;14.474;2023-01-30T00:36:02;21.50;;;16.50;;
44606;SDS011;30315;46.072;14.474;2023-01-30T00:38:29;24.63;;;17.15;;
44606;SDS011;30315;46.072;14.474;2023-01-30T00:40:56;23.63;;;16.75;;
44606;SDS011;30315;46.072;14.474;2023-01-30T00:43:23;23.50;;;16.23;;
44606;SDS011;30315;46.072;14.474;2023-01-30T00:46:10;22.05;;;16.13;;
44606;SDS011;30315;46.072;14.474;2023-01-30T00:49:15;24.15;;;16.63;;
44606;SDS011;30315;46.072;14.474;2023-01-30T00:51:42;20.65;;;16.00;;
44606;SDS011;30315;46.072;14.474;2023-01-30T00:54:11;23.33;;;17.20;;
44606;SDS011;30315;46.072;14.474;2023-01-30T00:56:38;24.35;;;17.05;;
44606;SDS011;30315;46.072;14.474;2023-01-30T00:59:05;24.80;;;18.25;;
44606;SDS011;30315;46.072;14.474;2023-01-30T01:01:31;23.02;;;17.10;;
44606;SDS011;30315;46.072;14.474;2023-01-30T01:03:58;25.15;;;17.67;;
44606;SDS011;30315;46.072;14.474;2023-01-30T01:06:25;23.08;;;16.30;;
44606;SDS011;30315;46.072;14.474;2023-01-30T01:08:52;23.50;;;17.42;;
44606;SDS011;30315;46.072;14.474;2023-01-30T01:11:19;21.48;;;17.02;;
44606;SDS011;30315;46.072;14.474;2023-01-30T01:13:56;23.65;;;18.38;;
44606;SDS011;30315;46.072;14.474;2023-01-30T01:16:26;24.33;;;17.60;;
44606;SDS011;30315;46.072;14.474;2023-01-30T01:18:56;23.60;;;17.00;;
44606;SDS011;30315;46.072;14.474;2023-01-30T01:21:23;25.60;;;19.02;;
44606;SDS011;30315;46.072;14.474;2023-01-30T01:23:52;25.50;;;18.25;;
44606;SDS011;30315;46.072;14.474;2023-01-30T01:26:20;21.35;;;16.85;;
44606;SDS011;30315;46.072;14.474;2023-01-30T01:28:48;23.67;;;17.48;;
44606;SDS011;30315;46.072;14.474;2023-01-30T01:31:16;23.88;;;17.40;;
44606;SDS011;30315;46.072;14.474;2023-01-30T01:33:43;21.92;;;16.63;;
44606;SDS011;30315;46.072;14.474;2023-01-30T01:36:10;26.92;;;18.00;;
44606;SDS011;30315;46.072;14.474;2023-01-30T01:38:47;22.73;;;17.40;;
44606;SDS011;30315;46.072;14.474;2023-01-30T01:41:16;26.75;;;19.25;;
44606;SDS011;30315;46.072;14.474;2023-01-30T01:49:24;26.10;;;17.05;;
44606;SDS011;30315;46.072;14.474;2023-01-30T01:54:28;21.88;;;16.33;;
44606;SDS011;30315;46.072;14.474;2023-01-30T01:57:11;24.23;;;17.40;;
44606;SDS011;30315;46.072;14.474;2023-01-30T01:59:44;23.20;;;16.42;;
44606;SDS011;30315;46.072;14.474;2023-01-30T02:02:24;23.40;;;17.23;;
44606;SDS011;30315;46.072;14.474;2023-01-30T02:04:52;24.67;;;17.77;;
44606;SDS011;30315;46.072;14.474;2023-01-30T02:07:37;24.48;;;18.55;;
44606;SDS011;30315;46.072;14.474;2023-01-30T02:10:15;25.42;;;18.30;;
44606;SDS011;30315;46.072;14.474;2023-01-30T02:12:45;25.13;;;18.02;;
44606;SDS011;30315;46.072;14.474;2023-01-30T02:15:13;22.85;;;17.98;;
44606;SDS011;30315;46.072;14.474;2023-01-30T02:32:13;26.30;;;18.92;;
44606;SDS011;30315;46.072;14.474;2023-01-30T02:48:26;23.92;;;17.30;;
44606;SDS011;30315;46.072;14.474;2023-01-30T02:51:06;28.60;;;19.80;;
44606;SDS011;30315;46.072;14.474;2023-01-30T02:53:37;25.40;;;18.52;;
44606;SDS011;30315;46.072;14.474;2023-01-30T02:56:05;26.83;;;18.73;;
44606;SDS011;30315;46.072;14.474;2023-01-30T02:58:39;25.70;;;18.90;;
44606;SDS011;30315;46.072;14.474;2023-01-30T03:01:24;24.00;;;17.38;;
44606;SDS011;30315;46.072;14.474;2023-01-30T03:04:05;26.77;;;17.88;;
44606;SDS011;30315;46.072;14.474;2023-01-30T03:12:56;24.98;;;17.60;;
44606;SDS011;30315;46.072;14.474;2023-01-30T03:15:45;24.80;;;17.80;;
44606;SDS011;30315;46.072;14.474;2023-01-30T03:18:19;24.58;;;17.70;;
44606;SDS011;30315;46.072;14.474;2023-01-30T03:20:48;26.05;;;18.77;;
44606;SDS011;30315;46.072;14.474;2023-01-30T03:23:15;24.92;;;18.15;;
44606;SDS011;30315;46.072;14.474;2023-01-30T03:25:42;24.90;;;18.65;;
44606;SDS011;30315;46.072;14.474;2023-01-30T03:28:13;22.88;;;17.50;;
44606;SDS011;30315;46.072;14.474;2023-01-30T03:30:43;24.40;;;17.55;;
44606;SDS011;30315;46.072;14.474;2023-01-30T03:33:12;25.75;;;18.35;;
44606;SDS011;30315;46.072;14.474;2023-01-30T03:35:44;24.70;;;17.67;;
44606;SDS011;30315;46.072;14.474;2023-01-30T03:38:12;23.73;;;17.42;;
44606;SDS011;30315;46.072;14.474;2023-01-30T03:40:39;24.23;;;17.23;;
44606;SDS011;30315;46.072;14.474;2023-01-30T03:43:07;23.35;;;17.50;;
44606;SDS011;30315;46.072;14.474;2023-01-30T03:45:36;22.90;;;18.35;;
44606;SDS011;30315;46.072;14.474;2023-01-30T03:48:03;21.73;;;16.20;;
44606;SDS011;30315;46.072;14.474;2023-01-30T03:50:31;25.42;;;17.48;;
44606;SDS011;30315;46.072;14.474;2023-01-30T03:52:59;22.02;;;16.95;;
44606;SDS011;30315;46.072;14.474;2023-01-30T03:55:27;24.80;;;17.63;;
44606;SDS011;30315;46.072;14.474;2023-01-30T03:57:55;22.88;;;16.90;;
44606;SDS011;30315;46.072;14.474;2023-01-30T04:00:26;22.45;;;16.40;;
44606;SDS011;30315;46.072;14.474;2023-01-30T04:02:54;21.83;;;15.88;;
44606;SDS011;30315;46.072;14.474;2023-01-30T04:05:24;22.15;;;16.13;;
44606;SDS011;30315;46.072;14.474;2023-01-30T04:07:57;25.33;;;17.60;;
44606;SDS011;30315;46.072;14.474;2023-01-30T04:10:25;23.30;;;16.60;;
44606;SDS011;30315;46.072;14.474;2023-01-30T04:12:52;20.90;;;16.33;;
44606;SDS011;30315;46.072;14.474;2023-01-30T04:15:20;22.35;;;16.63;;
44606;SDS011;30315;46.072;14.474;2023-01-30T04:17:53;22.98;;;16.40;;
44606;SDS011;30315;46.072;14.474;2023-01-30T04:20:46;25.83;;;17.98;;
44606;SDS011;30315;46.072;14.474;2023-01-30T04:23:18;23.08;;;16.80;;
44606;SDS011;30315;46.072;14.474;2023-01-30T04:25:46;25.15;;;18.50;;
44606;SDS011;30315;46.072;14.474;2023-01-30T04:28:16;23.98;;;17.33;;
44606;SDS011;30315;46.072;14.474;2023-01-30T04:30:43;28.33;;;19.25;;
44606;SDS011;30315;46.072;14.474;2023-01-30T04:33:29;26.52;;;18.13;;
44606;SDS011;30315;46.072;14.474;2023-01-30T04:35:57;27.00;;;18.33;;
44606;SDS011;30315;46.072;14.474;2023-01-30T04:38:26;26.17;;;17.95;;
44606;SDS011;30315;46.072;14.474;2023-01-30T04:40:54;28.08;;;18.85;;
44606;SDS011;30315;46.072;14.474;2023-01-30T04:43:24;25.58;;;18.67;;
44606;SDS011;30315;46.072;14.474;2023-01-30T04:46:11;27.25;;;18.67;;
44606;SDS011;30315;46.072;14.474;2023-01-30T04:48:39;25.48;;;17.65;;
44606;SDS011;30315;46.072;14.474;2023-01-30T04:51:07;21.83;;;16.70;;
44606;SDS011;30315;46.072;14.474;2023-01-30T04:53:36;26.40;;;17.48;;
44606;SDS011;30315;46.072;14.474;2023-01-30T04:56:03;21.08;;;15.43;;
44606;SDS011;30315;46.072;14.474;2023-01-30T04:58:30;23.40;;;16.55;;
44606;SDS011;30315;46.072;14.474;2023-01-30T05:01:20;23.40;;;16.55;;
44606;SDS011;30315;46.072;14.474;2023-01-30T05:03:49;21.23;;;16.63;;
44606;SDS011;30315;46.072;14.474;2023-01-30T05:06:20;22.45;;;17.25;;
44606;SDS011;30315;46.072;14.474;2023-01-30T05:08:48;23.20;;;17.15;;
44606;SDS011;30315;46.072;14.474;2023-01-30T05:11:16;23.92;;;16.58;;
44606;SDS011;30315;46.072;14.474;2023-01-30T05:13:43;23.63;;;16.40;;
44606;SDS011;30315;46.072;14.474;2023-01-30T05:16:10;21.48;;;15.75;;
44606;SDS011;30315;46.072;14.474;2023-01-30T05:18:39;23.60;;;16.77;;
44606;SDS011;30315;46.072;14.474;2023-01-30T05:21:06;24.88;;;18.30;;
44606;SDS011;30315;46.072;14.474;2023-01-30T05:23:35;24.17;;;17.27;;
44606;SDS011;30315;46.072;14.474;2023-01-30T05:26:02;23.05;;;16.55;;
44606;SDS011;30315;46.072;14.474;2023-01-30T05:28:29;25.38;;;17.77;;
44606;SDS011;30315;46.072;14.474;2023-01-30T05:31:00;26.17;;;18.15;;
44606;SDS011;30315;46.072;14.474;2023-01-30T05:33:38;25.58;;;18.17;;
44606;SDS011;30315;46.072;14.474;2023-01-30T05:36:06;23.20;;;16.88;;
44606;SDS011;30315;46.072;14.474;2023-01-30T05:38:33;25.08;;;17.88;;
44606;SDS011;30315;46.072;14.474;2023-01-30T05:41:01;24.08;;;17.50;;
44606;SDS011;30315;46.072;14.474;2023-01-30T05:43:30;26.80;;;18.20;;
44606;SDS011;30315;46.072;14.474;2023-01-30T05:45:58;26.38;;;18.77;;
44606;SDS011;30315;46.072;14.474;2023-01-30T05:48:28;26.05;;;18.73;;
44606;SDS011;30315;46.072;14.474;2023-01-30T05:50:56;25.90;;;17.38;;
44606;SDS011;30315;46.072;14.474;2023-01-30T05:53:25;25.02;;;17.75;;
44606;SDS011;30315;46.072;14.474;2023-01-30T05:55:58;28.08;;;17.95;;
44606;SDS011;30315;46.072;14.474;2023-01-30T05:58:29;25.48;;;17.98;;
44606;SDS011;30315;46.072;14.474;2023-01-30T06:01:04;24.08;;;16.33;;
44606;SDS011;30315;46.072;14.474;2023-01-30T06:03:32;25.63;;;16.77;;
44606;SDS011;30315;46.072;14.474;2023-01-30T06:06:03;22.45;;;16.80;;
44606;SDS011;30315;46.072;14.474;2023-01-30T06:08:31;23.67;;;17.65;;
44606;SDS011;30315;46.072;14.474;2023-01-30T06:11:01;25.50;;;18.15;;
44606;SDS011;30315;46.072;14.474;2023-01-30T06:13:33;26.98;;;18.23;;
44606;SDS011;30315;46.072;14.474;2023-01-30T06:16:00;22.20;;;16.40;;
44606;SDS011;30315;46.072;14.474;2023-01-30T06:18:27;24.65;;;18.15;;
44606;SDS011;30315;46.072;14.474;2023-01-30T06:20:54;27.50;;;18.80;;
44606;SDS011;30315;46.072;14.474;2023-01-30T06:23:21;24.13;;;17.08;;
44606;SDS011;30315;46.072;14.474;2023-01-30T06:25:49;25.48;;;18.73;;
44606;SDS011;30315;46.072;14.474;2023-01-30T06:28:17;25.35;;;18.00;;
44606;SDS011;30315;46.072;14.474;2023-01-30T06:30:44;25.42;;;17.85;;
44606;SDS011;30315;46.072;14.474;2023-01-30T06:33:14;26.65;;;18.33;;
44606;SDS011;30315;46.072;14.474;2023-01-30T06:35:41;24.77;;;16.88;;
44606;SDS011;30315;46.072;14.474;2023-01-30T06:38:10;25.70;;;17.33;;
44606;SDS011;30315;46.072;14.474;2023-01-30T06:40:39;28.38;;;19.40;;
44606;SDS011;30315;46.072;14.474;2023-01-30T06:43:07;24.50;;;17.70;;
44606;SDS011;30315;46.072;14.474;2023-01-30T06:45:34;27.27;;;19.00;;
44606;SDS011;30315;46.072;14.474;2023-01-30T06:48:01;30.10;;;18.58;;
44606;SDS011;30315;46.072;14.474;2023-01-30T06:50:28;27.38;;;18.88;;
44606;SDS011;30315;46.072;14.474;2023-01-30T06:52:56;26.50;;;17.08;;
44606;SDS011;30315;46.072;14.474;2023-01-30T06:55:24;25.00;;;17.40;;
44606;SDS011;30315;46.072;14.474;2023-01-30T06:58:04;23.58;;;17.88;;
44606;SDS011;30315;46.072;14.474;2023-01-30T07:00:32;27.92;;;18.42;;
44606;SDS011;30315;46.072;14.474;2023-01-30T07:03:00;29.00;;;19.20;;
44606;SDS011;30315;46.072;14.474;2023-01-30T07:05:29;27.23;;;17.83;;
44606;SDS011;30315;46.072;14.474;2023-01-30T07:07:57;27.10;;;18.45;;
44606;SDS011;30315;46.072;14.474;2023-01-30T07:10:23;27.38;;;18.13;;
44606;SDS011;30315;46.072;14.474;2023-01-30T07:12:51;25.70;;;17.73;;
44606;SDS011;30315;46.072;14.474;2023-01-30T07:15:18;30.10;;;19.52;;
44606;SDS011;30315;46.072;14.474;2023-01-30T07:17:46;27.83;;;18.63;;
44606;SDS011;30315;46.072;14.474;2023-01-30T07:20:13;27.20;;;18.45;;
44606;SDS011;30315;46.072;14.474;2023-01-30T07:22:40;25.95;;;18.45;;
44606;SDS011;30315;46.072;14.474;2023-01-30T07:25:07;28.25;;;19.27;;
44606;SDS011;30315;46.072;14.474;2023-01-30T07:27:34;27.77;;;19.23;;
44606;SDS011;30315;46.072;14.474;2023-01-30T07:30:01;23.98;;;18.38;;
44606;SDS011;30315;46.072;14.474;2023-01-30T07:32:33;27.30;;;18.63;;
44606;SDS011;30315;46.072;14.474;2023-01-30T07:34:59;25.02;;;18.23;;
44606;SDS011;30315;46.072;14.474;2023-01-30T07:37:28;27.08;;;19.08;;
44606;SDS011;30315;46.072;14.474;2023-01-30T07:39:56;26.65;;;18.63;;
44606;SDS011;30315;46.072;14.474;2023-01-30T07:42:23;24.27;;;17.27;;
44606;SDS011;30315;46.072;14.474;2023-01-30T07:44:51;24.90;;;17.90;;
44606;SDS011;30315;46.072;14.474;2023-01-30T07:47:18;24.20;;;17.13;;
44606;SDS011;30315;46.072;14.474;2023-01-30T07:49:45;25.70;;;18.05;;
44606;SDS011;30315;46.072;14.474;2023-01-30T07:52:13;30.13;;;19.55;;
44606;SDS011;30315;46.072;14.474;2023-01-30T07:54:40;24.55;;;17.83;;
44606;SDS011;30315;46.072;14.474;2023-01-30T07:57:07;25.38;;;18.33;;
44606;SDS011;30315;46.072;14.474;2023-01-30T07:59:34;24.88;;;17.65;;
44606;SDS011;30315;46.072;14.474;2023-01-30T08:02:01;26.00;;;19.55;;
44606;SDS011;30315;46.072;14.474;2023-01-30T08:04:28;28.48;;;20.67;;
44606;SDS011;30315;46.072;14.474;2023-01-30T08:06:55;28.80;;;18.95;;
44606;SDS011;30315;46.072;14.474;2023-01-30T08:09:22;38.10;;;21.77;;
44606;SDS011;30315;46.072;14.474;2023-01-30T08:11:49;32.58;;;21.52;;
44606;SDS011;30315;46.072;14.474;2023-01-30T08:14:16;29.02;;;20.80;;
44606;SDS011;30315;46.072;14.474;2023-01-30T08:16:43;30.70;;;20.17;;
44606;SDS011;30315;46.072;14.474;2023-01-30T08:19:10;29.52;;;21.05;;
44606;SDS011;30315;46.072;14.474;2023-01-30T08:21:37;28.77;;;19.88;;
44606;SDS011;30315;46.072;14.474;2023-01-30T08:24:04;31.13;;;20.25;;
44606;SDS011;30315;46.072;14.474;2023-01-30T08:26:32;36.38;;;22.80;;
44606;SDS011;30315;46.072;14.474;2023-01-30T08:28:59;34.35;;;20.73;;
44606;SDS011;30315;46.072;14.474;2023-01-30T08:31:26;31.50;;;20.75;;
44606;SDS011;30315;46.072;14.474;2023-01-30T08:33:55;32.03;;;21.10;;
44606;SDS011;30315;46.072;14.474;2023-01-30T08:36:25;33.80;;;22.15;;
44606;SDS011;30315;46.072;14.474;2023-01-30T08:38:52;33.78;;;21.63;;
44606;SDS011;30315;46.072;14.474;2023-01-30T08:41:18;29.95;;;20.83;;
44606;SDS011;30315;46.072;14.474;2023-01-30T08:43:45;28.08;;;20.17;;
44606;SDS011;30315;46.072;14.474;2023-01-30T08:46:12;26.73;;;18.90;;
44606;SDS011;30315;46.072;14.474;2023-01-30T08:48:39;29.38;;;20.52;;
44606;SDS011;30315;46.072;14.474;2023-01-30T08:51:15;28.35;;;18.98;;
44606;SDS011;30315;46.072;14.474;2023-01-30T08:53:42;23.38;;;17.63;;
44606;SDS011;30315;46.072;14.474;2023-01-30T08:56:09;26.95;;;18.33;;
44606;SDS011;30315;46.072;14.474;2023-01-30T08:58:36;25.85;;;17.05;;
44606;SDS011;30315;46.072;14.474;2023-01-30T09:01:04;24.02;;;17.83;;
44606;SDS011;30315;46.072;14.474;2023-01-30T09:03:32;27.60;;;18.87;;
44606;SDS011;30315;46.072;14.474;2023-01-30T09:06:02;26.17;;;19.90;;
44606;SDS011;30315;46.072;14.474;2023-01-30T09:08:29;25.25;;;18.38;;
44606;SDS011;30315;46.072;14.474;2023-01-30T09:10:57;24.45;;;17.30;;
44606;SDS011;30315;46.072;14.474;2023-01-30T09:13:27;28.92;;;20.13;;
44606;SDS011;30315;46.072;14.474;2023-01-30T09:15:57;33.60;;;20.75;;
44606;SDS011;30315;46.072;14.474;2023-01-30T09:18:24;31.92;;;20.30;;
44606;SDS011;30315;46.072;14.474;2023-01-30T09:20:51;31.33;;;20.60;;
44606;SDS011;30315;46.072;14.474;2023-01-30T09:23:19;30.83;;;21.15;;
44606;SDS011;30315;46.072;14.474;2023-01-30T09:25:46;30.08;;;20.20;;
44606;SDS011;30315;46.072;14.474;2023-01-30T09:28:13;31.45;;;21.48;;
44606;SDS011;30315;46.072;14.474;2023-01-30T09:30:40;32.88;;;21.90;;
44606;SDS011;30315;46.072;14.474;2023-01-30T09:33:07;32.30;;;22.92;;
44606;SDS011;30315;46.072;14.474;2023-01-30T09:35:41;34.53;;;22.58;;
44606;SDS011;30315;46.072;14.474;2023-01-30T09:38:10;40.08;;;25.63;;
44606;SDS011;30315;46.072;14.474;2023-01-30T09:40:37;36.78;;;23.00;;
44606;SDS011;30315;46.072;14.474;2023-01-30T09:46:23;33.17;;;21.35;;
44606;SDS011;30315;46.072;14.474;2023-01-30T09:49:18;32.20;;;21.85;;
44606;SDS011;30315;46.072;14.474;2023-01-30T09:54:20;31.70;;;20.52;;
44606;SDS011;30315;46.072;14.474;2023-01-30T10:00:09;31.17;;;18.85;;
44606;SDS011;30315;46.072;14.474;2023-01-30T10:27:20;33.53;;;21.25;;
44606;SDS011;30315;46.072;14.474;2023-01-30T10:29:53;34.58;;;22.08;;
44606;SDS011;30315;46.072;14.474;2023-01-30T10:34:56;33.00;;;22.52;;
44606;SDS011;30315;46.072;14.474;2023-01-30T10:40:23;29.98;;;20.15;;
44606;SDS011;30315;46.072;14.474;2023-01-30T10:45:27;28.80;;;19.80;;
44606;SDS011;30315;46.072;14.474;2023-01-30T10:48:36;28.13;;;20.38;;
44606;SDS011;30315;46.072;14.474;2023-01-30T10:51:24;29.70;;;19.95;;
44606;SDS011;30315;46.072;14.474;2023-01-30T10:59:57;26.58;;;18.85;;
44606;SDS011;30315;46.072;14.474;2023-01-30T11:02:34;27.20;;;18.00;;
44606;SDS011;30315;46.072;14.474;2023-01-30T11:05:23;26.75;;;18.15;;
44606;SDS011;30315;46.072;14.474;2023-01-30T11:07:53;27.55;;;18.77;;
44606;SDS011;30315;46.072;14.474;2023-01-30T11:10:22;27.85;;;18.77;;
44606;SDS011;30315;46.072;14.474;2023-01-30T11:12:58;27.35;;;18.80;;
44606;SDS011;30315;46.072;14.474;2023-01-30T11:15:39;28.65;;;18.38;;
44606;SDS011;30315;46.072;14.474;2023-01-30T11:18:07;28.80;;;20.42;;
44606;SDS011;30315;46.072;14.474;2023-01-30T11:23:40;25.85;;;18.33;;
44606;SDS011;30315;46.072;14.474;2023-01-30T11:26:24;26.10;;;18.20;;
44606;SDS011;30315;46.072;14.474;2023-01-30T11:29:19;25.90;;;17.90;;
44606;SDS011;30315;46.072;14.474;2023-01-30T11:32:02;28.08;;;18.50;;
44606;SDS011;30315;46.072;14.474;2023-01-30T11:34:42;26.40;;;17.75;;
44606;SDS011;30315;46.072;14.474;2023-01-30T11:37:13;23.48;;;16.45;;
44606;SDS011;30315;46.072;14.474;2023-01-30T11:39:51;28.00;;;18.65;;
44606;SDS011;30315;46.072;14.474;2023-01-30T11:42:21;28.80;;;19.05;;
44606;SDS011;30315;46.072;14.474;2023-01-30T11:44:56;31.92;;;20.45;;
44606;SDS011;30315;46.072;14.474;2023-01-30T11:47:47;32.67;;;20.15;;
44606;SDS011;30315;46.072;14.474;2023-01-30T11:50:31;28.35;;;19.70;;
44606;SDS011;30315;46.072;14.474;2023-01-30T11:53:16;34.97;;;22.13;;
44606;SDS011;30315;46.072;14.474;2023-01-30T11:55:47;33.72;;;21.90;;
44606;SDS011;30315;46.072;14.474;2023-01-30T11:58:30;36.83;;;23.00;;
44606;SDS011;30315;46.072;14.474;2023-01-30T12:00:59;33.40;;;22.23;;
44606;SDS011;30315;46.072;14.474;2023-01-30T12:03:27;33.70;;;23.17;;
44606;SDS011;30315;46.072;14.474;2023-01-30T12:05:56;37.47;;;22.95;;
44606;SDS011;30315;46.072;14.474;2023-01-30T12:08:25;38.03;;;23.48;;
44606;SDS011;30315;46.072;14.474;2023-01-30T12:11:27;32.20;;;22.40;;
44606;SDS011;30315;46.072;14.474;2023-01-30T12:14:13;32.33;;;21.42;;
44606;SDS011;30315;46.072;14.474;2023-01-30T12:17:04;35.88;;;21.77;;
44606;SDS011;30315;46.072;14.474;2023-01-30T12:19:51;30.25;;;21.05;;
44606;SDS011;30315;46.072;14.474;2023-01-30T12:22:32;34.00;;;22.80;;
44606;SDS011;30315;46.072;14.474;2023-01-30T12:25:17;32.85;;;21.75;;
44606;SDS011;30315;46.072;14.474;2023-01-30T12:33:17;32.85;;;21.95;;
44606;SDS011;30315;46.072;14.474;2023-01-30T12:35:58;29.02;;;19.98;;
44606;SDS011;30315;46.072;14.474;2023-01-30T12:39:20;31.70;;;21.90;;
44606;SDS011;30315;46.072;14.474;2023-01-30T12:41:55;35.20;;;21.65;;
44606;SDS011;30315;46.072;14.474;2023-01-30T12:53:12;34.15;;;21.40;;
44606;SDS011;30315;46.072;14.474;2023-01-30T12:55:56;35.38;;;21.88;;
44606;SDS011;30315;46.072;14.474;2023-01-30T12:58:31;31.65;;;20.98;;
44606;SDS011;30315;46.072;14.474;2023-01-30T13:09:17;28.70;;;20.75;;
44606;SDS011;30315;46.072;14.474;2023-01-30T13:12:12;32.97;;;20.35;;
44606;SDS011;30315;46.072;14.474;2023-01-30T13:15:01;29.25;;;19.95;;
44606;SDS011;30315;46.072;14.474;2023-01-30T13:28:39;29.92;;;20.42;;
44606;SDS011;30315;46.072;14.474;2023-01-30T13:31:11;26.38;;;19.38;;
44606;SDS011;30315;46.072;14.474;2023-01-30T13:33:47;27.70;;;19.15;;
44606;SDS011;30315;46.072;14.474;2023-01-30T13:38:59;30.50;;;21.75;;
44606;SDS011;30315;46.072;14.474;2023-01-30T13:41:39;30.98;;;20.35;;
44606;SDS011;30315;46.072;14.474;2023-01-30T13:44:25;27.55;;;18.85;;
44606;SDS011;30315;46.072;14.474;2023-01-30T13:47:22;28.17;;;20.45;;
44606;SDS011;30315;46.072;14.474;2023-01-30T13:50:14;33.22;;;20.50;;
44606;SDS011;30315;46.072;14.474;2023-01-30T13:52:56;31.65;;;21.15;;
44606;SDS011;30315;46.072;14.474;2023-01-30T14:00:55;33.58;;;21.75;;
44606;SDS011;30315;46.072;14.474;2023-01-30T14:03:32;34.58;;;21.85;;
44606;SDS011;30315;46.072;14.474;2023-01-30T14:06:00;30.60;;;20.92;;
44606;SDS011;30315;46.072;14.474;2023-01-30T14:08:46;29.25;;;20.17;;
44606;SDS011;30315;46.072;14.474;2023-01-30T14:11:27;31.42;;;21.00;;
44606;SDS011;30315;46.072;14.474;2023-01-30T14:14:26;35.03;;;21.80;;
44606;SDS011;30315;46.072;14.474;2023-01-30T14:17:08;29.50;;;21.08;;
44606;SDS011;30315;46.072;14.474;2023-01-30T14:20:02;29.40;;;20.20;;
44606;SDS011;30315;46.072;14.474;2023-01-30T14:22:57;31.85;;;20.98;;
44606;SDS011;30315;46.072;14.474;2023-01-30T14:32:57;31.45;;;22.48;;
44606;SDS011;30315;46.072;14.474;2023-01-30T14:35:26;32.53;;;21.15;;
44606;SDS011;30315;46.072;14.474;2023-01-30T14:38:18;29.67;;;21.33;;
44606;SDS011;30315;46.072;14.474;2023-01-30T14:45:54;31.98;;;22.83;;
44606;SDS011;30315;46.072;14.474;2023-01-30T14:48:30;32.38;;;21.98;;
44606;SDS011;30315;46.072;14.474;2023-01-30T14:51:20;29.73;;;21.55;;
44606;SDS011;30315;46.072;14.474;2023-01-30T15:04:56;30.38;;;21.40;;
44606;SDS011;30315;46.072;14.474;2023-01-30T15:07:36;30.83;;;21.50;;
44606;SDS011;30315;46.072;14.474;2023-01-30T15:10:15;29.85;;;21.23;;
44606;SDS011;30315;46.072;14.474;2023-01-30T15:16:06;31.95;;;21.88;;
44606;SDS011;30315;46.072;14.474;2023-01-30T15:21:18;32.63;;;20.33;;
44606;SDS011;30315;46.072;14.474;2023-01-30T15:32:29;34.95;;;22.48;;
44606;SDS011;30315;46.072;14.474;2023-01-30T15:34:59;37.22;;;22.70;;
44606;SDS011;30315;46.072;14.474;2023-01-30T15:37:51;33.75;;;21.73;;
44606;SDS011;30315;46.072;14.474;2023-01-30T15:40:26;38.50;;;23.60;;
44606;SDS011;30315;46.072;14.474;2023-01-30T15:45:41;33.95;;;21.60;;
44606;SDS011;30315;46.072;14.474;2023-01-30T15:51:28;35.08;;;22.27;;
44606;SDS011;30315;46.072;14.474;2023-01-30T15:53:57;38.47;;;23.92;;
44606;SDS011;30315;46.072;14.474;2023-01-30T15:56:27;38.37;;;23.90;;
44606;SDS011;30315;46.072;14.474;2023-01-30T16:01:25;36.72;;;23.25;;
44606;SDS011;30315;46.072;14.474;2023-01-30T16:03:52;41.63;;;24.75;;
44606;SDS011;30315;46.072;14.474;2023-01-30T16:06:33;43.58;;;26.00;;
44606;SDS011;30315;46.072;14.474;2023-01-30T16:11:41;51.13;;;29.98;;
44606;SDS011;30315;46.072;14.474;2023-01-30T16:14:12;45.92;;;28.58;;
44606;SDS011;30315;46.072;14.474;2023-01-30T16:19:17;41.05;;;26.70;;
44606;SDS011;30315;46.072;14.474;2023-01-30T16:22:13;43.75;;;25.73;;
44606;SDS011;30315;46.072;14.474;2023-01-30T16:24:44;38.85;;;25.35;;
44606;SDS011;30315;46.072;14.474;2023-01-30T16:27:18;46.22;;;27.58;;
44606;SDS011;30315;46.072;14.474;2023-01-30T16:29:54;42.35;;;23.83;;
44606;SDS011;30315;46.072;14.474;2023-01-30T16:32:25;38.17;;;24.83;;
44606;SDS011;30315;46.072;14.474;2023-01-30T16:37:40;41.92;;;26.15;;
44606;SDS011;30315;46.072;14.474;2023-01-30T16:42:36;46.15;;;27.27;;
44606;SDS011;30315;46.072;14.474;2023-01-30T16:53:25;72.00;;;33.75;;
44606;SDS011;30315;46.072;14.474;2023-01-30T16:55:55;73.35;;;33.63;;
44606;SDS011;30315;46.072;14.474;2023-01-30T16:58:23;46.97;;;29.55;;
44606;SDS011;30315;46.072;14.474;2023-01-30T17:01:04;49.08;;;28.20;;
44606;SDS011;30315;46.072;14.474;2023-01-30T17:03:34;47.58;;;29.65;;
44606;SDS011;30315;46.072;14.474;2023-01-30T17:06:06;51.08;;;29.40;;
44606;SDS011;30315;46.072;14.474;2023-01-30T17:08:48;48.70;;;29.17;;
44606;SDS011;30315;46.072;14.474;2023-01-30T17:11:29;49.60;;;29.50;;
44606;SDS011;30315;46.072;14.474;2023-01-30T17:17:01;48.88;;;30.67;;
44606;SDS011;30315;46.072;14.474;2023-01-30T17:19:29;53.15;;;32.30;;
44606;SDS011;30315;46.072;14.474;2023-01-30T17:21:56;56.92;;;33.15;;
44606;SDS011;30315;46.072;14.474;2023-01-30T17:24:25;56.28;;;32.97;;
44606;SDS011;30315;46.072;14.474;2023-01-30T17:26:56;47.25;;;28.92;;
44606;SDS011;30315;46.072;14.474;2023-01-30T17:29:35;46.47;;;27.92;;
44606;SDS011;30315;46.072;14.474;2023-01-30T17:32:12;48.58;;;30.58;;
44606;SDS011;30315;46.072;14.474;2023-01-30T17:34:41;48.53;;;31.88;;
44606;SDS011;30315;46.072;14.474;2023-01-30T17:37:10;44.92;;;30.45;;
44606;SDS011;30315;46.072;14.474;2023-01-30T17:39:43;45.90;;;30.10;;
44606;SDS011;30315;46.072;14.474;2023-01-30T17:42:11;49.38;;;31.00;;
44606;SDS011;30315;46.072;14.474;2023-01-30T17:44:39;40.50;;;26.25;;
44606;SDS011;30315;46.072;14.474;2023-01-30T17:47:08;43.28;;;28.33;;
44606;SDS011;30315;46.072;14.474;2023-01-30T17:49:37;41.28;;;26.17;;
44606;SDS011;30315;46.072;14.474;2023-01-30T17:52:04;40.80;;;26.63;;
44606;SDS011;30315;46.072;14.474;2023-01-30T17:54:33;44.08;;;27.67;;
44606;SDS011;30315;46.072;14.474;2023-01-30T17:57:04;41.95;;;27.17;;
44606;SDS011;30315;46.072;14.474;2023-01-30T17:59:32;46.22;;;28.55;;
44606;SDS011;30315;46.072;14.474;2023-01-30T18:02:01;55.95;;;31.80;;